Time;durP1;ratioP1;P1;durP2;ratioP2;P2;SDS_P1;SDS_P2;PMS_P1;PMS_P2;Temp;Humidity;BMP_temperature;BMP_pressure;BME280_temperature;BME280_humidity;BME280_pressure;Samples;Min_cycle;Max_cycle;Signal;HPM_P1;HPM_P2
2022/05/23 00:01:53;;;;;;;0.83;0.83;;;;;;;;;;5076090;28;20254;-85
2022/05/23 00:04:21;;;;;;;2.20;2.00;;;;;;;;;;5075967;28;20218;-86
2022/05/23 00:06:50;;;;;;;0.80;0.80;;;;;;;;;;5075490;28;20209;-86
2022/05/23 00:09:19;;;;;;;0.83;0.83;;;;;;;;;;5075867;28;20197;-85
2022/05/23 00:11:47;;;;;;;4.93;1.47;;;;;;;;;;5093733;28;20192;-86
2022/05/23 00:14:17;;;;;;;0.97;0.97;;;;;;;;;;5093524;28;20273;-86
2022/05/23 00:16:47;;;;;;;0.87;0.87;;;;;;;;;;5093800;28;20326;-85
2022/05/23 00:19:16;;;;;;;1.20;1.10;;;;;;;;;;5075741;28;20204;-85
2022/05/23 00:21:46;;;;;;;2.20;1.37;;;;;;;;;;5076001;28;20265;-86
2022/05/23 00:24:15;;;;;;;1.07;1.07;;;;;;;;;;5075843;28;20215;-85
2022/05/23 00:26:46;;;;;;;0.70;0.70;;;;;;;;;;5075727;28;20205;-85
2022/05/23 00:29:15;;;;;;;1.37;1.27;;;;;;;;;;5093730;28;20227;-85
2022/05/23 00:37:14;;;;;;;0.50;0.50;;;;;;;;;;5075415;28;20286;-85
2022/05/23 00:39:42;;;;;;;5.50;0.80;;;;;;;;;;5075250;28;20329;-85
2022/05/23 00:44:59;;;;;;;0.70;0.70;;;;;;;;;;5093195;28;20226;-85
2022/05/23 00:47:29;;;;;;;0.97;0.97;;;;;;;;;;5093406;28;20201;-86
2022/05/23 00:49:58;;;;;;;0.43;0.43;;;;;;;;;;5093428;28;20204;-86
2022/05/23 00:52:28;;;;;;;0.40;0.40;;;;;;;;;;5075542;28;20217;-85
2022/05/23 00:54:59;;;;;;;1.23;1.20;;;;;;;;;;5075455;28;20217;-85
2022/05/23 00:57:29;;;;;;;0.63;0.63;;;;;;;;;;5075842;28;20203;-85
2022/05/23 00:59:59;;;;;;;0.70;0.70;;;;;;;;;;5075288;28;20204;-85
2022/05/23 01:02:29;;;;;;;2.13;1.03;;;;;;;;;;5075541;28;20258;-86
2022/05/23 01:04:58;;;;;;;1.60;1.57;;;;;;;;;;5075314;28;20217;-86
2022/05/23 01:07:26;;;;;;;1.00;1.00;;;;;;;;;;5093535;28;20203;-85
2022/05/23 01:09:54;;;;;;;0.70;0.70;;;;;;;;;;5093086;28;20201;-85
2022/05/23 01:12:23;;;;;;;6.53;1.80;;;;;;;;;;5075325;28;20290;-85
2022/05/23 01:14:53;;;;;;;0.83;0.83;;;;;;;;;;5075210;28;20213;-85
2022/05/23 01:17:22;;;;;;;2.83;1.50;;;;;;;;;;5075453;28;20208;-85
2022/05/23 01:19:52;;;;;;;2.43;0.70;;;;;;;;;;5079296;28;20205;-85
2022/05/23 01:22:25;;;;;;;1.27;1.17;;;;;;;;;;5079272;28;20208;-85
2022/05/23 01:24:57;;;;;;;1.23;1.07;;;;;;;;;;5078844;28;20195;-86
2022/05/23 01:27:29;;;;;;;2.17;1.97;;;;;;;;;;5078868;28;20215;-85
2022/05/23 01:29:57;;;;;;;1.30;1.20;;;;;;;;;;5079111;28;20211;-85
2022/05/23 01:32:26;;;;;;;0.67;0.67;;;;;;;;;;5096819;28;20200;-85
2022/05/23 01:34:54;;;;;;;1.23;1.10;;;;;;;;;;5072819;28;20216;-85
2022/05/23 01:37:23;;;;;;;1.00;1.00;;;;;;;;;;5065315;28;20231;-86
2022/05/23 01:39:51;;;;;;;1.13;1.07;;;;;;;;;;5039053;28;20209;-85
2022/05/23 01:42:20;;;;;;;0.40;0.40;;;;;;;;;;5037973;28;20195;-86
2022/05/23 01:44:49;;;;;;;1.73;1.63;;;;;;;;;;5054984;28;20206;-85
2022/05/23 01:47:19;;;;;;;21.77;2.00;;;;;;;;;;5056194;28;20211;-86
2022/05/23 01:49:47;;;;;;;1.13;1.03;;;;;;;;;;5054995;28;20212;-86
2022/05/23 01:52:15;;;;;;;0.70;0.70;;;;;;;;;;5041753;28;20211;-86
2022/05/23 01:54:44;;;;;;;0.93;0.90;;;;;;;;;;5051813;28;20226;-85
2022/05/23 01:57:14;;;;;;;1.27;1.17;;;;;;;;;;5036187;28;20206;-86
2022/05/23 02:02:29;;;;;;;0.47;0.47;;;;;;;;;;5051593;28;20209;-86
2022/05/23 02:04:58;;;;;;;0.80;0.80;;;;;;;;;;5036207;28;20228;-86
2022/05/23 02:07:26;;;;;;;1.03;1.00;;;;;;;;;;5051791;28;20203;-86
2022/05/23 02:09:54;;;;;;;0.70;0.70;;;;;;;;;;5051615;28;20264;-86
2022/05/23 02:12:23;;;;;;;1.40;1.30;;;;;;;;;;5035759;28;20195;-86
2022/05/23 02:14:52;;;;;;;0.43;0.43;;;;;;;;;;5034570;28;20219;-86
2022/05/23 02:17:20;;;;;;;0.50;0.50;;;;;;;;;;5034427;28;20203;-86
2022/05/23 02:19:50;;;;;;;0.83;0.83;;;;;;;;;;5051211;28;20221;-86
2022/05/23 02:22:19;;;;;;;0.77;0.77;;;;;;;;;;5034635;28;20209;-86
2022/05/23 02:24:47;;;;;;;0.40;0.40;;;;;;;;;;5051377;28;20273;-86
2022/05/23 02:27:15;;;;;;;2.63;2.30;;;;;;;;;;5034345;28;20207;-86
2022/05/23 02:29:44;;;;;;;0.70;0.70;;;;;;;;;;5050487;28;20199;-86
2022/05/23 02:32:12;;;;;;;0.40;0.40;;;;;;;;;;5051007;28;20203;-86
2022/05/23 02:34:41;;;;;;;0.50;0.50;;;;;;;;;;5034417;28;20214;-86
2022/05/23 02:37:11;;;;;;;0.40;0.40;;;;;;;;;;5049335;28;20241;-86
2022/05/23 02:39:40;;;;;;;0.50;0.50;;;;;;;;;;5054164;28;20195;-86
2022/05/23 02:42:15;;;;;;;1.73;1.63;;;;;;;;;;5054398;28;20228;-86
2022/05/23 02:44:44;;;;;;;0.53;0.53;;;;;;;;;;5053848;28;20198;-86
2022/05/23 02:47:13;;;;;;;0.53;0.53;;;;;;;;;;5053988;28;20225;-86
2022/05/23 02:49:42;;;;;;;0.60;0.60;;;;;;;;;;5054314;28;20219;-86
2022/05/23 02:52:11;;;;;;;0.70;0.70;;;;;;;;;;5054155;28;20251;-86
2022/05/23 02:54:40;;;;;;;0.30;0.30;;;;;;;;;;5053652;28;20225;-86
2022/05/23 02:57:08;;;;;;;2.30;2.10;;;;;;;;;;5053746;28;20208;-86
2022/05/23 02:59:38;;;;;;;5.63;0.83;;;;;;;;;;5053785;28;20201;-86
2022/05/23 03:04:52;;;;;;;0.40;0.40;;;;;;;;;;5053655;28;20214;-86
2022/05/23 03:07:22;;;;;;;0.93;0.93;;;;;;;;;;5053809;28;20237;-86
2022/05/23 03:09:51;;;;;;;3.13;2.93;;;;;;;;;;5054766;28;20209;-86
2022/05/23 03:12:19;;;;;;;0.63;0.63;;;;;;;;;;5053470;28;20212;-86
2022/05/23 03:14:48;;;;;;;1.10;1.00;;;;;;;;;;5053166;28;20225;-86
2022/05/23 03:17:16;;;;;;;1.43;1.43;;;;;;;;;;5053327;28;20205;-86
2022/05/23 03:19:44;;;;;;;2.37;2.17;;;;;;;;;;5054446;28;20220;-86
2022/05/23 03:27:47;;;;;;;0.57;0.57;;;;;;;;;;5053319;28;20210;-87
2022/05/23 03:30:16;;;;;;;0.90;0.90;;;;;;;;;;5053090;28;20214;-87
2022/05/23 03:32:44;;;;;;;0.40;0.40;;;;;;;;;;5053632;28;20221;-86
2022/05/23 03:35:12;;;;;;;0.50;0.50;;;;;;;;;;5053950;28;20219;-86
2022/05/23 03:37:42;;;;;;;1.10;1.10;;;;;;;;;;5072310;28;20230;-87
2022/05/23 03:40:12;;;;;;;3.70;1.43;;;;;;;;;;5073437;28;20228;-86
2022/05/23 03:42:41;;;;;;;0.60;0.60;;;;;;;;;;5066319;28;20210;-86
2022/05/23 03:45:10;;;;;;;0.60;0.60;;;;;;;;;;5052954;28;20202;-86
2022/05/23 03:47:39;;;;;;;0.50;0.50;;;;;;;;;;5052883;28;20302;-86
2022/05/23 03:50:08;;;;;;;0.90;0.90;;;;;;;;;;5052705;28;20209;-86
2022/05/23 03:52:36;;;;;;;1.37;1.27;;;;;;;;;;5052730;28;20256;-86
2022/05/23 03:55:05;;;;;;;0.60;0.60;;;;;;;;;;5052907;28;20217;-86
2022/05/23 03:57:35;;;;;;;1.23;1.23;;;;;;;;;;5052796;28;20187;-86
2022/05/23 04:00:05;;;;;;;1.80;1.17;;;;;;;;;;5052747;28;20206;-86
2022/05/23 04:02:34;;;;;;;4.80;2.30;;;;;;;;;;5052736;28;20195;-89
2022/05/23 04:05:07;;;;;;;1.87;1.67;;;;;;;;;;5052752;28;20214;-86
2022/05/23 04:07:37;;;;;;;0.90;0.90;;;;;;;;;;5052376;28;20194;-87
2022/05/23 04:10:06;;;;;;;1.10;1.10;;;;;;;;;;5052666;28;20206;-86
2022/05/23 04:12:46;;;;;;;0.97;0.97;;;;;;;;;;5052553;28;20255;-87
2022/05/23 04:15:15;;;;;;;0.50;0.50;;;;;;;;;;5052218;28;20253;-87
2022/05/23 04:17:44;;;;;;;1.07;1.07;;;;;;;;;;5052373;28;20201;-86
2022/05/23 04:20:13;;;;;;;1.73;1.63;;;;;;;;;;5053449;28;20202;-87
2022/05/23 04:22:42;;;;;;;1.13;1.13;;;;;;;;;;5052583;28;20202;-87
2022/05/23 04:25:11;;;;;;;2.37;1.30;;;;;;;;;;5052126;28;20225;-87
2022/05/23 04:27:41;;;;;;;1.73;1.63;;;;;;;;;;5052163;28;20198;-87
2022/05/23 04:30:12;;;;;;;0.97;0.80;;;;;;;;;;5052349;28;20203;-86
2022/05/23 04:35:26;;;;;;;2.30;1.63;;;;;;;;;;5053095;28;20225;-86
2022/05/23 04:38:21;;;;;;;0.77;0.77;;;;;;;;;;5055748;28;20206;-86
2022/05/23 04:40:49;;;;;;;2.97;1.80;;;;;;;;;;5055478;28;20221;-88
2022/05/23 04:43:19;;;;;;;1.77;1.50;;;;;;;;;;5055704;28;20224;-88
2022/05/23 04:45:48;;;;;;;0.60;0.60;;;;;;;;;;5055595;28;20196;-88
2022/05/23 04:51:03;;;;;;;0.83;0.83;;;;;;;;;;5055533;28;20254;-88
2022/05/23 04:53:31;;;;;;;0.50;0.50;;;;;;;;;;5059652;28;20211;-82
2022/05/23 04:56:00;;;;;;;1.17;1.03;;;;;;;;;;5059337;28;20214;-87
2022/05/23 04:58:30;;;;;;;1.83;1.73;;;;;;;;;;5059662;28;20223;-87
2022/05/23 05:01:01;;;;;;;2.47;2.27;;;;;;;;;;5059668;28;20201;-87
2022/05/23 05:03:29;;;;;;;2.20;2.10;;;;;;;;;;5059241;28;20220;-87
2022/05/23 05:05:58;;;;;;;2.30;2.20;;;;;;;;;;5077091;28;20221;-87
2022/05/23 05:08:29;;;;;;;3.23;2.83;;;;;;;;;;5059116;28;20205;-87
2022/05/23 05:11:01;;;;;;;2.40;2.20;;;;;;;;;;5059178;28;20212;-87
2022/05/23 05:13:32;;;;;;;8.83;3.87;;;;;;;;;;5059251;28;20205;-87
2022/05/23 05:16:02;;;;;;;2.53;2.33;;;;;;;;;;5076630;28;20224;-87
2022/05/23 05:18:31;;;;;;;5.50;3.00;;;;;;;;;;5059064;28;20208;-87
2022/05/23 05:21:03;;;;;;;5.10;3.63;;;;;;;;;;5059012;28;20213;-87
2022/05/23 05:23:32;;;;;;;1.83;1.73;;;;;;;;;;5059178;28;20209;-87
2022/05/23 05:26:02;;;;;;;10.03;2.80;;;;;;;;;;5059038;28;20193;-86
2022/05/23 05:28:32;;;;;;;0.80;0.80;;;;;;;;;;5058708;28;20197;-87
2022/05/23 05:31:02;;;;;;;1.97;1.87;;;;;;;;;;5058770;28;20255;-88
2022/05/23 05:33:32;;;;;;;1.27;1.20;;;;;;;;;;5076487;28;20214;-88
2022/05/23 05:36:03;;;;;;;2.00;1.80;;;;;;;;;;5076201;28;20234;-88
2022/05/23 05:38:33;;;;;;;4.37;3.27;;;;;;;;;;5058436;28;20202;-87
2022/05/23 05:41:04;;;;;;;3.87;3.13;;;;;;;;;;5058500;28;20198;-88
2022/05/23 05:43:35;;;;;;;2.33;2.13;;;;;;;;;;5058408;28;20231;-87
2022/05/23 05:46:06;;;;;;;1.63;1.53;;;;;;;;;;5058583;28;20211;-87
2022/05/23 05:48:40;;;;;;;5.00;3.23;;;;;;;;;;5058802;28;20253;-87
2022/05/23 05:51:09;;;;;;;2.37;2.00;;;;;;;;;;5076543;28;20198;-88
2022/05/23 05:53:38;;;;;;;2.20;1.57;;;;;;;;;;5058672;28;20198;-88
2022/05/23 05:56:09;;;;;;;1.60;1.50;;;;;;;;;;5058344;28;20228;-87
2022/05/23 05:58:39;;;;;;;4.03;1.90;;;;;;;;;;5058480;28;20202;-87
2022/05/23 06:01:08;;;;;;;1.40;1.30;;;;;;;;;;5076025;28;20289;-85
2022/05/23 06:03:36;;;;;;;4.90;3.40;;;;;;;;;;5057237;28;20277;-89
2022/05/23 06:11:37;;;;;;;2.30;2.10;;;;;;;;;;5075970;28;20205;-88
2022/05/23 06:14:07;;;;;;;2.83;2.27;;;;;;;;;;5058342;28;20198;-87
2022/05/23 06:16:36;;;;;;;1.73;1.63;;;;;;;;;;5058108;28;20219;-88
2022/05/23 06:19:05;;;;;;;2.77;2.30;;;;;;;;;;5057994;28;20233;-88
2022/05/23 06:21:33;;;;;;;6.60;3.43;;;;;;;;;;5058397;28;20201;-87
2022/05/23 06:24:02;;;;;;;5.37;3.10;;;;;;;;;;5058355;28;20202;-87
2022/05/23 06:26:33;;;;;;;7.57;2.30;;;;;;;;;;5058039;28;20198;-88
2022/05/23 06:29:02;;;;;;;4.13;3.23;;;;;;;;;;5058023;28;20207;-88
2022/05/23 06:31:33;;;;;;;7.83;3.30;;;;;;;;;;5057811;28;20197;-87
2022/05/23 06:34:01;;;;;;;4.53;3.33;;;;;;;;;;5058368;28;20297;-87
2022/05/23 06:36:29;;;;;;;9.83;2.87;;;;;;;;;;5057849;28;20240;-87
2022/05/23 06:38:58;;;;;;;1.83;1.60;;;;;;;;;;5057991;28;20296;-88
2022/05/23 06:41:27;;;;;;;3.27;2.97;;;;;;;;;;5058126;28;20194;-88
2022/05/23 06:43:56;;;;;;;1.27;1.27;;;;;;;;;;5075152;28;20204;-88
2022/05/23 06:46:24;;;;;;;8.53;3.57;;;;;;;;;;5077836;28;20227;-87
2022/05/23 06:48:54;;;;;;;3.13;2.30;;;;;;;;;;5095288;28;20203;-87
2022/05/23 06:51:22;;;;;;;3.40;1.57;;;;;;;;;;5077730;28;20303;-87
2022/05/23 06:53:52;;;;;;;0.80;0.80;;;;;;;;;;5078562;28;20303;-87
2022/05/23 06:56:21;;;;;;;1.50;1.37;;;;;;;;;;5077606;28;20228;-87
2022/05/23 06:58:50;;;;;;;4.13;1.37;;;;;;;;;;5077586;28;20228;-87
2022/05/23 07:01:18;;;;;;;6.97;2.93;;;;;;;;;;5095469;28;20203;-86
2022/05/23 07:03:47;;;;;;;0.30;0.30;;;;;;;;;;5077226;28;20226;-87
2022/05/23 07:14:35;;;;;;;0.87;0.87;;;;;;;;;;5077292;28;20208;-87
2022/05/23 07:17:05;;;;;;;0.60;0.60;;;;;;;;;;5077095;28;20221;-87
2022/05/23 07:19:36;;;;;;;0.83;0.83;;;;;;;;;;5077326;28;20206;-87
2022/05/23 07:22:06;;;;;;;0.93;0.93;;;;;;;;;;5077321;28;20226;-87
2022/05/23 07:24:35;;;;;;;1.77;1.67;;;;;;;;;;5095146;28;20208;-88
2022/05/23 07:27:04;;;;;;;3.30;1.13;;;;;;;;;;5076710;28;20225;-87
2022/05/23 07:29:32;;;;;;;0.60;0.60;;;;;;;;;;5077548;28;20201;-87
2022/05/23 07:32:01;;;;;;;0.30;0.30;;;;;;;;;;5077008;28;20197;-88
2022/05/23 07:34:30;;;;;;;0.40;0.40;;;;;;;;;;5077416;28;20208;-87
2022/05/23 07:37:00;;;;;;;0.60;0.60;;;;;;;;;;5076810;28;20265;-87
2022/05/23 07:39:30;;;;;;;2.00;1.43;;;;;;;;;;5077515;28;20212;-87
2022/05/23 07:41:58;;;;;;;1.47;1.23;;;;;;;;;;5076581;28;20289;-87
2022/05/23 07:44:29;;;;;;;5.53;1.33;;;;;;;;;;5057171;28;20207;-87
2022/05/23 07:46:57;;;;;;;5.10;2.90;;;;;;;;;;5075293;28;20201;-85
2022/05/23 07:49:26;;;;;;;2.60;2.40;;;;;;;;;;5074967;28;20204;-87
2022/05/23 07:51:56;;;;;;;2.23;2.10;;;;;;;;;;5074731;28;20201;-87
2022/05/23 08:02:48;;;;;;;1.53;1.47;;;;;;;;;;5056759;28;20207;-87
2022/05/23 08:05:16;;;;;;;2.17;2.07;;;;;;;;;;5056774;28;20226;-87
2022/05/23 08:07:48;;;;;;;2.17;2.00;;;;;;;;;;5057505;28;20296;-87
2022/05/23 08:10:17;;;;;;;1.20;1.20;;;;;;;;;;5057042;28;20205;-87
2022/05/23 08:12:49;;;;;;;0.67;0.67;;;;;;;;;;5056872;28;20211;-87
2022/05/23 08:15:18;;;;;;;4.57;1.70;;;;;;;;;;5057302;28;20206;-87
2022/05/23 08:17:47;;;;;;;1.07;1.07;;;;;;;;;;5074933;28;20269;-87
2022/05/23 08:20:15;;;;;;;0.53;0.53;;;;;;;;;;5057033;28;20258;-87
2022/05/23 08:22:46;;;;;;;7.97;3.67;;;;;;;;;;5057547;28;20217;-87
2022/05/23 08:25:19;;;;;;;5.37;2.27;;;;;;;;;;5057149;28;20199;-86
2022/05/23 08:27:49;;;;;;;1.57;1.03;;;;;;;;;;5069059;28;20232;-87
2022/05/23 08:30:18;;;;;;;1.50;1.40;;;;;;;;;;5063277;28;20301;-86
2022/05/23 08:32:47;;;;;;;0.50;0.50;;;;;;;;;;5085657;28;20191;-87
2022/05/23 08:35:15;;;;;;;0.40;0.40;;;;;;;;;;5066620;28;20265;-87
2022/05/23 08:37:46;;;;;;;0.47;0.47;;;;;;;;;;5056966;28;20235;-87
2022/05/23 08:40:15;;;;;;;2.80;2.60;;;;;;;;;;5068105;28;20209;-84
2022/05/23 08:42:55;;;;;;;5.40;3.03;;;;;;;;;;5067188;28;20339;-85
2022/05/23 08:45:26;;;;;;;9.00;1.87;;;;;;;;;;5066113;28;20299;-86
2022/05/23 08:48:12;;;;;;;3.37;2.03;;;;;;;;;;5063107;28;20200;-85
2022/05/23 08:50:44;;;;;;;5.40;3.53;;;;;;;;;;5065973;28;20250;-84
2022/05/23 08:53:15;;;;;;;0.40;0.40;;;;;;;;;;5080264;28;20214;-84
2022/05/23 08:55:47;;;;;;;1.23;1.23;;;;;;;;;;5062426;28;20273;-86
2022/05/23 08:58:19;;;;;;;2.97;2.27;;;;;;;;;;5079629;28;20244;-85
2022/05/23 09:00:49;;;;;;;1.60;1.50;;;;;;;;;;5076622;28;20215;-85
2022/05/23 09:03:21;;;;;;;1.83;1.73;;;;;;;;;;5082647;28;20220;-87
2022/05/23 09:05:51;;;;;;;1.33;1.33;;;;;;;;;;5064710;28;20722;-86
2022/05/23 09:08:38;;;;;;;1.47;1.37;;;;;;;;;;5065922;28;20207;-86
2022/05/23 09:11:09;;;;;;;0.87;0.50;;;;;;;;;;5061003;28;20206;-85
2022/05/23 09:13:41;;;;;;;0.63;0.63;;;;;;;;;;5084699;28;20294;-85
2022/05/23 09:16:12;;;;;;;2.43;1.73;;;;;;;;;;5065259;28;20207;-84
2022/05/23 09:18:43;;;;;;;0.47;0.47;;;;;;;;;;5063468;28;20279;-86
2022/05/23 09:21:12;;;;;;;5.63;5.17;;;;;;;;;;5065826;28;20194;-84
2022/05/23 09:23:44;;;;;;;1.70;1.60;;;;;;;;;;5063799;28;20279;-80
2022/05/23 09:26:16;;;;;;;3.53;3.33;;;;;;;;;;5081143;28;20208;-80
2022/05/23 09:28:46;;;;;;;0.50;0.50;;;;;;;;;;5063184;28;20185;-81
2022/05/23 09:31:20;;;;;;;0.70;0.70;;;;;;;;;;5056228;28;20207;-79
2022/05/23 09:33:50;;;;;;;1.23;1.23;;;;;;;;;;5057816;28;20294;-82
2022/05/23 09:36:34;;;;;;;0.40;0.40;;;;;;;;;;5067890;28;20235;-85
2022/05/23 09:39:34;;;;;;;1.60;1.50;;;;;;;;;;5057296;28;20217;-85
2022/05/23 09:48:09;;;;;;;5.27;4.23;;;;;;;;;;5067553;28;20204;-84
2022/05/23 09:51:10;;;;;;;5.40;1.93;;;;;;;;;;5067847;28;20308;-84
2022/05/23 09:53:53;;;;;;;6.77;4.03;;;;;;;;;;5068949;28;20211;-85
2022/05/23 09:56:57;;;;;;;;;;;;;;;;;;;;;
2022/05/23 09:59:57;;;;;;;;;;;;;;;;;;;;;
2022/05/23 10:06:06;;;;;;;0.73;0.73;;;;;;;;;;5067297;28;20345;-86
2022/05/23 10:08:45;;;;;;;5.47;1.53;;;;;;;;;;5082161;28;20217;-85
2022/05/23 10:11:28;;;;;;;0.47;0.47;;;;;;;;;;5068630;28;20289;-86
2022/05/23 10:14:11;;;;;;;0.60;0.60;;;;;;;;;;5055924;28;20193;-87
2022/05/23 10:19:53;;;;;;;;;;;;;;;;;;;;;
2022/05/23 10:23:03;;;;;;;4.17;2.70;;;;;;;;;;5078740;28;20195;-86
2022/05/23 10:25:50;;;;;;;0.83;0.83;;;;;;;;;;5079073;28;20200;-87
2022/05/23 10:28:48;;;;;;;1.60;1.50;;;;;;;;;;5064455;28;20252;-84
2022/05/23 10:35:28;;;;;;;5.07;4.60;;;;;;;;;;5065292;28;20214;-85
2022/05/23 10:44:51;;;;;;;4.73;4.33;;;;;;;;;;5066770;28;20297;-85
2022/05/23 10:47:56;;;;;;;3.20;2.10;;;;;;;;;;5082583;28;20306;-86
2022/05/23 10:54:30;;;;;;;1.13;1.03;;;;;;;;;;5082993;28;20213;-83
2022/05/23 11:00:51;;;;;;;2.40;2.20;;;;;;;;;;5059128;28;20356;-90
2022/05/23 11:03:57;;;;;;;3.20;2.33;;;;;;;;;;5064548;28;20964;-89
2022/05/23 11:10:17;;;;;;;1.27;1.27;;;;;;;;;;5070474;28;20208;-87
2022/05/23 11:13:28;;;;;;;3.97;3.30;;;;;;;;;;5065029;28;20271;-86
2022/05/23 11:19:51;;;;;;;5.07;4.57;;;;;;;;;;5080272;28;20231;-86
2022/05/23 11:22:40;;;;;;;2.63;2.43;;;;;;;;;;5057147;28;20217;-86
2022/05/23 11:25:34;;;;;;;2.57;2.33;;;;;;;;;;5068515;28;20200;-83
2022/05/23 11:37:49;;;;;;;3.53;3.20;;;;;;;;;;5069129;28;20360;-86
2022/05/23 11:40:41;;;;;;;2.83;2.63;;;;;;;;;;5062745;28;20221;-87
2022/05/23 11:43:27;;;;;;;1.93;1.83;;;;;;;;;;5066010;28;20265;-88
2022/05/23 11:46:08;;;;;;;5.17;4.67;;;;;;;;;;5068737;28;20213;-87
2022/05/23 11:49:00;;;;;;;2.37;2.20;;;;;;;;;;5066806;28;20195;-87
2022/05/23 11:52:00;;;;;;;4.47;4.07;;;;;;;;;;5072499;28;20234;-87
2022/05/23 11:54:37;;;;;;;4.63;4.27;;;;;;;;;;5066432;28;20212;-87
2022/05/23 11:57:35;;;;;;;2.10;2.00;;;;;;;;;;5065003;28;20199;-87
2022/05/23 12:00:28;;;;;;;6.00;5.30;;;;;;;;;;5060856;28;20222;-87
2022/05/23 12:03:09;;;;;;;4.90;4.40;;;;;;;;;;5063688;28;20201;-85
2022/05/23 12:05:38;;;;;;;6.60;4.73;;;;;;;;;;5067737;28;20241;-85
2022/05/23 12:08:27;;;;;;;7.30;5.03;;;;;;;;;;5070036;28;20226;-86
2022/05/23 12:10:58;;;;;;;1.90;1.80;;;;;;;;;;5084469;28;20194;-86
2022/05/23 12:13:28;;;;;;;3.87;3.43;;;;;;;;;;5063399;28;20231;-85
2022/05/23 12:15:58;;;;;;;1.80;1.70;;;;;;;;;;5071984;28;20242;-85
2022/05/23 12:18:34;;;;;;;2.07;1.97;;;;;;;;;;5071739;28;20202;-85
2022/05/23 12:21:03;;;;;;;4.97;2.20;;;;;;;;;;5063675;28;20239;-85
2022/05/23 12:23:34;;;;;;;3.97;3.60;;;;;;;;;;5066529;28;20203;-86
2022/05/23 12:26:08;;;;;;;3.77;3.33;;;;;;;;;;5066405;28;20236;-87
2022/05/23 12:28:45;;;;;;;11.63;9.13;;;;;;;;;;5066874;28;20204;-86
2022/05/23 12:31:16;;;;;;;6.00;5.37;;;;;;;;;;5070409;28;20206;-85
2022/05/23 12:33:48;;;;;;;3.33;2.67;;;;;;;;;;5063796;28;20199;-85
2022/05/23 12:36:20;;;;;;;4.70;4.23;;;;;;;;;;5067971;28;20319;-87
2022/05/23 12:39:07;;;;;;;3.67;3.33;;;;;;;;;;5086700;28;20223;-86
2022/05/23 12:41:57;;;;;;;5.00;4.50;;;;;;;;;;5067553;28;20301;-87
2022/05/23 12:44:43;;;;;;;7.00;4.77;;;;;;;;;;5064901;28;20295;-86
2022/05/23 12:47:19;;;;;;;3.30;2.90;;;;;;;;;;5069782;28;20198;-87
2022/05/23 12:49:56;;;;;;;11.60;6.93;;;;;;;;;;5070158;28;20205;-88
2022/05/23 12:52:30;;;;;;;5.23;3.63;;;;;;;;;;5070719;28;20213;-85
2022/05/23 12:55:07;;;;;;;3.63;3.30;;;;;;;;;;5067731;28;20198;-87
2022/05/23 12:57:55;;;;;;;9.43;6.83;;;;;;;;;;5068760;28;20214;-89
2022/05/23 13:00:29;;;;;;;9.40;5.97;;;;;;;;;;5061369;28;20227;-85
2022/05/23 13:03:02;;;;;;;8.87;7.00;;;;;;;;;;5065788;28;20206;-86
2022/05/23 13:05:38;;;;;;;2.57;2.37;;;;;;;;;;5069669;28;20210;-86
2022/05/23 13:08:10;;;;;;;13.67;6.47;;;;;;;;;;5070356;28;20209;-87
2022/05/23 13:10:41;;;;;;;5.10;4.63;;;;;;;;;;5080738;28;20234;-86
2022/05/23 13:13:14;;;;;;;5.00;4.60;;;;;;;;;;5086900;28;20200;-86
2022/05/23 13:15:43;;;;;;;14.03;7.13;;;;;;;;;;5073473;28;20210;-85
2022/05/23 13:24:00;;;;;;;5.53;5.13;;;;;;;;;;5078214;28;20201;-89
2022/05/23 13:26:29;;;;;;;9.47;5.13;;;;;;;;;;5075941;28;20220;-89
2022/05/23 13:29:11;;;;;;;5.70;5.03;;;;;;;;;;5073174;28;20299;-87
2022/05/23 13:31:39;;;;;;;17.30;4.37;;;;;;;;;;5070606;28;20227;-86
2022/05/23 13:34:12;;;;;;;10.77;8.13;;;;;;;;;;5072451;28;20215;-87
2022/05/23 13:36:46;;;;;;;3.70;3.37;;;;;;;;;;5073769;28;20246;-88
2022/05/23 13:39:16;;;;;;;11.73;10.37;;;;;;;;;;5072195;28;20225;-89
2022/05/23 13:41:45;;;;;;;5.50;5.00;;;;;;;;;;5073470;28;20198;-89
2022/05/23 13:44:22;;;;;;;14.10;11.10;;;;;;;;;;5075019;28;20281;-87
2022/05/23 13:46:51;;;;;;;14.87;9.10;;;;;;;;;;5076178;28;20204;-87
2022/05/23 13:49:23;;;;;;;29.30;14.00;;;;;;;;;;5069672;28;20211;-85
2022/05/23 13:51:54;;;;;;;16.57;13.37;;;;;;;;;;5069432;28;20217;-84
2022/05/23 13:54:26;;;;;;;15.50;12.53;;;;;;;;;;5072082;28;20202;-83
2022/05/23 13:56:57;;;;;;;14.23;12.40;;;;;;;;;;5064514;28;20397;-82
2022/05/23 13:59:26;;;;;;;23.80;15.30;;;;;;;;;;5085431;28;20236;-81
2022/05/23 14:01:58;;;;;;;16.17;14.23;;;;;;;;;;5085918;28;20205;-82
2022/05/23 14:04:29;;;;;;;19.47;14.27;;;;;;;;;;5084461;28;20274;-83
2022/05/23 14:07:01;;;;;;;20.13;15.93;;;;;;;;;;5088901;28;20208;-84
2022/05/23 14:09:30;;;;;;;11.77;8.47;;;;;;;;;;5074545;28;20210;-84
2022/05/23 14:12:03;;;;;;;26.30;19.50;;;;;;;;;;5072269;28;20217;-82
2022/05/23 14:14:37;;;;;;;14.00;11.83;;;;;;;;;;5069475;28;20205;-83
2022/05/23 14:17:11;;;;;;;11.57;9.50;;;;;;;;;;5067392;28;20204;-83
2022/05/23 14:19:44;;;;;;;18.00;13.03;;;;;;;;;;5069484;28;20212;-83
2022/05/23 14:22:15;;;;;;;6.37;5.80;;;;;;;;;;5070330;28;20201;-83
2022/05/23 14:24:45;;;;;;;14.47;12.27;;;;;;;;;;5084061;28;20204;-82
2022/05/23 14:27:22;;;;;;;16.47;13.00;;;;;;;;;;5070400;28;20197;-83
2022/05/23 14:30:14;;;;;;;14.87;13.40;;;;;;;;;;5067892;28;20205;-84
2022/05/23 14:32:43;;;;;;;26.73;19.57;;;;;;;;;;5086625;28;20204;-80
2022/05/23 14:35:15;;;;;;;30.37;9.00;;;;;;;;;;5081702;28;20243;-82
2022/05/23 14:37:51;;;;;;;26.77;15.40;;;;;;;;;;5062097;28;20235;-81
2022/05/23 14:40:24;;;;;;;42.63;25.33;;;;;;;;;;5072576;28;20236;-81
2022/05/23 14:42:54;;;;;;;25.77;18.37;;;;;;;;;;5089823;28;20208;-81
2022/05/23 14:45:26;;;;;;;22.43;18.33;;;;;;;;;;5081618;28;20237;-81
2022/05/23 14:48:00;;;;;;;24.47;16.67;;;;;;;;;;5083117;28;20209;-81
2022/05/23 14:50:37;;;;;;;27.57;18.90;;;;;;;;;;5064021;28;20209;-81
2022/05/23 14:55:57;;;;;;;13.97;12.57;;;;;;;;;;5070163;28;20213;-84
2022/05/23 15:01:18;;;;;;;14.47;12.83;;;;;;;;;;5075267;28;20219;-83
2022/05/23 15:03:48;;;;;;;13.17;11.87;;;;;;;;;;5062754;28;20316;-82
2022/05/23 15:06:18;;;;;;;13.17;11.07;;;;;;;;;;5064068;28;20215;-80
2022/05/23 15:08:48;;;;;;;30.17;15.90;;;;;;;;;;5067975;28;20319;-82
2022/05/23 15:11:18;;;;;;;14.80;10.83;;;;;;;;;;5066577;28;20203;-83
2022/05/23 15:13:48;;;;;;;10.90;9.27;;;;;;;;;;5061838;28;20196;-82
2022/05/23 15:16:18;;;;;;;8.60;6.40;;;;;;;;;;5086685;28;20221;-82
2022/05/23 15:18:47;;;;;;;81.00;39.03;;;;;;;;;;5062426;28;20388;-82
2022/05/23 15:21:18;;;;;;;21.70;9.43;;;;;;;;;;5067208;28;20283;-82
2022/05/23 15:23:48;;;;;;;10.90;9.43;;;;;;;;;;5079153;28;20215;-82
2022/05/23 15:26:19;;;;;;;23.23;8.93;;;;;;;;;;5081804;28;20215;-82
2022/05/23 15:28:50;;;;;;;15.53;10.93;;;;;;;;;;5067741;28;20205;-81
2022/05/23 15:31:19;;;;;;;9.93;8.40;;;;;;;;;;5080710;28;20212;-81
2022/05/23 15:33:48;;;;;;;11.67;6.97;;;;;;;;;;5064117;28;20200;-82
2022/05/23 15:36:16;;;;;;;1.90;1.80;;;;;;;;;;5058243;28;20205;-82
2022/05/23 15:38:44;;;;;;;0.30;0.30;;;;;;;;;;5085734;28;20223;-83
2022/05/23 15:41:15;;;;;;;0.40;0.40;;;;;;;;;;5068199;28;20215;-83
2022/05/23 15:43:43;;;;;;;0.30;0.30;;;;;;;;;;5084466;28;20216;-81
2022/05/23 15:46:23;;;;;;;0.57;0.57;;;;;;;;;;5066707;28;20635;-81
2022/05/23 15:48:54;;;;;;;0.30;0.30;;;;;;;;;;5064243;28;20230;-81
2022/05/23 15:51:23;;;;;;;0.30;0.30;;;;;;;;;;5067922;28;20211;-81
2022/05/23 15:53:51;;;;;;;0.30;0.30;;;;;;;;;;5086440;28;20197;-81
2022/05/23 15:56:21;;;;;;;0.30;0.30;;;;;;;;;;5074971;28;20222;-81
2022/05/23 15:58:49;;;;;;;0.40;0.40;;;;;;;;;;5093999;28;20230;-81
2022/05/23 16:01:19;;;;;;;0.30;0.30;;;;;;;;;;5074561;28;20216;-80
2022/05/23 16:03:48;;;;;;;0.57;0.57;;;;;;;;;;5093497;28;20243;-80
2022/05/23 16:06:16;;;;;;;0.37;0.37;;;;;;;;;;5093946;28;20196;-80
2022/05/23 16:08:50;;;;;;;0.30;0.30;;;;;;;;;;5093915;28;20203;-82
2022/05/23 16:11:22;;;;;;;35.93;14.50;;;;;;;;;;5076262;28;20626;-83
2022/05/23 16:13:51;;;;;;;0.30;0.30;;;;;;;;;;5094208;28;20203;-83
2022/05/23 16:16:20;;;;;;;1.17;1.17;;;;;;;;;;5076086;28;20253;-83
2022/05/23 16:18:49;;;;;;;0.30;0.30;;;;;;;;;;5075802;28;20199;-83
2022/05/23 16:21:18;;;;;;;0.30;0.30;;;;;;;;;;5075513;28;20230;-83
2022/05/23 16:23:46;;;;;;;0.23;0.23;;;;;;;;;;5094216;28;20206;-83
2022/05/23 16:26:15;;;;;;;0.30;0.30;;;;;;;;;;5075482;28;20201;-83
2022/05/23 16:28:45;;;;;;;5.93;5.63;;;;;;;;;;5074405;28;20191;-83
2022/05/23 16:31:16;;;;;;;0.30;0.30;;;;;;;;;;5075502;28;20198;-83
2022/05/23 16:36:38;;;;;;;0.30;0.30;;;;;;;;;;5093482;28;20244;-82
2022/05/23 16:39:08;;;;;;;0.40;0.40;;;;;;;;;;5075625;28;20206;-82
2022/05/23 16:41:37;;;;;;;0.30;0.30;;;;;;;;;;5075616;28;20214;-81
2022/05/23 16:44:08;;;;;;;0.33;0.33;;;;;;;;;;5075526;28;20258;-82
2022/05/23 16:46:37;;;;;;;0.30;0.30;;;;;;;;;;5075498;28;20204;-81
2022/05/23 16:49:06;;;;;;;0.30;0.30;;;;;;;;;;5074987;28;20191;-81
2022/05/23 16:51:35;;;;;;;0.30;0.30;;;;;;;;;;5075815;28;20214;-82
2022/05/23 16:54:04;;;;;;;0.30;0.30;;;;;;;;;;5075473;28;20194;-81
2022/05/23 16:56:32;;;;;;;0.30;0.30;;;;;;;;;;5075262;28;20254;-82
2022/05/23 16:59:01;;;;;;;0.30;0.30;;;;;;;;;;5075175;28;20237;-82
2022/05/23 17:01:31;;;;;;;0.30;0.30;;;;;;;;;;5075251;28;20225;-82
2022/05/23 17:03:59;;;;;;;0.30;0.30;;;;;;;;;;5093095;28;20220;-82